Time;durP1;ratioP1;P1;durP2;ratioP2;P2;SDS_P1;SDS_P2;PMS_P1;PMS_P2;Temp;Humidity;BMP_temperature;BMP_pressure;BME280_temperature;BME280_humidity;BME280_pressure;Samples;Min_cycle;Max_cycle;Signal;HPM_P1;HPM_P2
2021/01/09 00:01:41;;;;;;;13.98;12.30;;;3.40;60.90;4.90;100762.00;;;;5091161;28;20417;-75
2021/01/09 00:04:09;;;;;;;14.17;12.50;;;3.40;59.50;4.90;100755.00;;;;5091366;28;20974;-75
2021/01/09 00:06:40;;;;;;;14.73;12.00;;;3.40;60.20;4.90;100746.00;;;;5110155;27;20421;-74
2021/01/09 00:09:08;;;;;;;13.15;11.60;;;3.50;60.70;4.80;100745.00;;;;5092440;28;20418;-74
2021/01/09 00:11:35;;;;;;;13.87;11.93;;;3.30;59.30;4.70;100749.00;;;;5087927;28;20777;-75
2021/01/09 00:14:03;;;;;;;13.90;11.35;;;3.30;60.10;4.80;100750.00;;;;5083472;28;20876;-75
2021/01/09 00:16:31;;;;;;;14.57;12.35;;;3.30;59.80;4.80;100743.00;;;;5082807;28;20414;-75
2021/01/09 00:18:58;;;;;;;14.10;12.60;;;3.30;60.20;4.80;100758.00;;;;5088108;28;20429;-74
2021/01/09 00:21:35;;;;;;;14.30;11.90;;;3.30;60.00;4.80;100750.00;;;;5099748;28;20532;-74
2021/01/09 00:24:05;;;;;;;13.90;11.68;;;3.30;59.30;4.60;100749.00;;;;5100063;28;20425;-75
2021/01/09 00:26:33;;;;;;;12.50;10.70;;;3.20;58.10;4.70;100757.00;;;;5093347;28;20411;-75
2021/01/09 00:29:01;;;;;;;14.35;11.80;;;3.20;58.50;4.80;100759.00;;;;5085044;28;20429;-75
2021/01/09 00:31:29;;;;;;;13.10;11.55;;;3.20;59.20;4.70;100767.00;;;;5107229;28;20426;-76
2021/01/09 00:33:57;;;;;;;13.68;11.50;;;3.10;58.70;4.70;100759.00;;;;5086868;28;20428;-75
2021/01/09 00:36:24;;;;;;;13.80;11.98;;;3.20;58.00;4.70;100781.00;;;;5094027;27;20435;-75
2021/01/09 00:38:51;;;;;;;13.10;11.70;;;3.30;58.00;4.80;100777.00;;;;5078980;28;20971;-75
2021/01/09 00:41:27;;;;;;;14.00;11.80;;;3.30;57.60;4.80;100768.00;;;;5091464;28;20405;-75
2021/01/09 00:43:55;;;;;;;13.35;11.43;;;3.30;57.60;4.90;100764.00;;;;5094489;28;20422;-75
2021/01/09 00:46:23;;;;;;;12.83;11.43;;;3.30;56.90;4.80;100775.00;;;;5110656;27;20469;-73
2021/01/09 00:48:51;;;;;;;12.50;11.20;;;3.30;56.80;4.90;100787.00;;;;5090230;28;20418;-74
2021/01/09 00:51:19;;;;;;;13.80;12.00;;;3.30;57.20;4.90;100783.00;;;;5118277;27;20441;-74
2021/01/09 00:53:46;;;;;;;14.20;11.93;;;3.30;57.50;4.90;100786.00;;;;5096358;28;20464;-74
2021/01/09 00:56:17;;;;;;;14.18;11.75;;;3.40;57.50;4.90;100786.00;;;;5083217;28;20424;-73
2021/01/09 00:58:47;;;;;;;15.18;12.32;;;3.30;57.40;4.90;100787.00;;;;5090106;28;20421;-74
2021/01/09 01:01:15;;;;;;;15.98;12.60;;;3.30;58.00;4.90;100796.00;;;;5085433;28;20447;-74
2021/01/09 01:03:43;;;;;;;13.30;11.13;;;3.30;58.20;4.90;100788.00;;;;5096058;28;20471;-75
2021/01/09 01:06:10;;;;;;;13.70;11.60;;;3.30;58.10;4.90;100794.00;;;;5094343;28;20418;-74
2021/01/09 01:08:39;;;;;;;14.27;11.95;;;3.30;58.20;4.80;100791.00;;;;5088245;28;20458;-75
2021/01/09 01:11:09;;;;;;;13.57;11.27;;;3.30;58.20;4.80;100795.00;;;;5091999;28;20423;-74
2021/01/09 01:13:36;;;;;;;15.30;12.43;;;3.20;58.40;4.70;100786.00;;;;5105356;28;20416;-73
2021/01/09 01:16:05;;;;;;;13.65;11.80;;;3.20;58.50;4.70;100803.00;;;;5104616;28;20778;-74
2021/01/09 01:18:33;;;;;;;14.60;12.77;;;3.20;58.90;4.80;100809.00;;;;5093357;28;20508;-76
2021/01/09 01:21:00;;;;;;;14.95;13.20;;;3.20;59.20;4.80;100810.00;;;;5085468;28;20469;-75
2021/01/09 01:23:27;;;;;;;15.82;13.38;;;3.30;58.40;4.70;100805.00;;;;5089962;28;20406;-74
2021/01/09 01:25:55;;;;;;;15.18;12.18;;;3.30;58.50;4.70;100808.00;;;;5100578;28;20461;-74
2021/01/09 01:28:23;;;;;;;13.93;11.80;;;3.20;58.50;4.80;100809.00;;;;5088047;28;20421;-74
2021/01/09 01:30:51;;;;;;;15.60;12.93;;;3.20;58.80;4.80;100805.00;;;;5089984;28;20457;-74
2021/01/09 01:33:19;;;;;;;14.85;13.00;;;3.20;59.10;4.90;100806.00;;;;5086653;28;20480;-74
2021/01/09 01:35:48;;;;;;;15.30;12.50;;;3.20;58.90;5.00;100834.00;;;;5081001;28;20458;-74
2021/01/09 01:38:16;;;;;;;15.82;13.05;;;3.30;59.10;5.00;100816.00;;;;5076985;28;20458;-74
2021/01/09 01:40:43;;;;;;;14.63;12.30;;;3.30;58.60;5.10;100806.00;;;;5086426;28;20413;-74
2021/01/09 01:43:11;;;;;;;14.30;12.60;;;3.40;58.90;5.10;100819.00;;;;5102534;28;20418;-74
2021/01/09 01:45:38;;;;;;;14.68;12.88;;;3.50;58.70;5.20;100811.00;;;;5089816;28;20509;-75
2021/01/09 01:48:08;;;;;;;14.25;12.30;;;3.50;57.50;5.10;100826.00;;;;5082095;28;20844;-74
2021/01/09 01:50:37;;;;;;;15.50;12.70;;;3.50;57.60;5.20;100822.00;;;;5093037;28;20472;-73
2021/01/09 01:53:06;;;;;;;14.45;11.65;;;3.60;57.40;5.20;100815.00;;;;5072289;28;20427;-74
2021/01/09 01:55:34;;;;;;;14.68;12.77;;;3.60;56.60;5.30;100823.00;;;;5090935;28;20525;-73
2021/01/09 01:58:02;;;;;;;15.10;12.70;;;3.70;57.00;5.30;100812.00;;;;5089492;28;20474;-73
2021/01/09 02:00:29;;;;;;;15.80;12.05;;;3.70;56.10;5.30;100806.00;;;;5088644;28;20497;-74
2021/01/09 02:02:58;;;;;;;14.65;12.43;;;3.60;56.30;5.30;100819.00;;;;5089853;28;20493;-73
2021/01/09 02:05:35;;;;;;;14.30;12.20;;;3.60;55.50;5.20;100820.00;;;;5105146;28;20532;-74
2021/01/09 02:08:07;;;;;;;13.77;11.60;;;3.50;55.20;5.20;100828.00;;;;5080398;28;20425;-73
2021/01/09 02:10:35;;;;;;;14.13;12.63;;;3.40;55.60;5.10;100814.00;;;;5098907;28;20542;-77
2021/01/09 02:13:08;;;;;;;14.85;12.25;;;3.40;55.90;5.10;100824.00;;;;5089875;28;20410;-74
2021/01/09 02:15:35;;;;;;;13.40;11.50;;;3.40;56.20;5.10;100801.00;;;;5092250;28;20422;-75
2021/01/09 02:18:04;;;;;;;13.38;11.77;;;3.40;55.70;5.10;100826.00;;;;5091016;28;20889;-74
2021/01/09 02:20:35;;;;;;;14.52;11.70;;;3.40;56.00;5.20;100811.00;;;;5088189;28;20418;-73
2021/01/09 02:23:04;;;;;;;13.52;11.63;;;3.50;56.30;5.30;100819.00;;;;5088704;28;20493;-74
2021/01/09 02:25:32;;;;;;;12.48;11.00;;;3.60;56.70;5.20;100822.00;;;;5083436;28;20415;-74
2021/01/09 02:28:00;;;;;;;13.38;11.30;;;3.60;55.90;5.30;100818.00;;;;5079706;28;20421;-74
2021/01/09 02:30:47;;;;;;;12.35;11.05;;;3.60;55.30;5.20;100822.00;;;;5091811;28;20422;-74
2021/01/09 02:33:39;;;;;;;12.20;10.13;;;3.50;54.30;5.20;100820.00;;;;5088419;28;20473;-74
2021/01/09 02:39:28;;;;;;;14.65;12.40;;;3.40;53.80;5.10;100825.00;;;;5096519;28;20463;-75
2021/01/09 02:42:17;;;;;;;12.10;10.00;;;3.40;56.50;5.10;100819.00;;;;5072331;28;20411;-75
2021/01/09 02:45:24;;;;;;;11.07;9.90;;;3.40;55.10;5.10;100817.00;;;;5084951;28;20506;-74
2021/01/09 02:48:21;;;;;;;12.60;10.43;;;3.50;55.20;5.20;100817.00;;;;5099016;28;20440;-75
2021/01/09 02:51:02;;;;;;;12.57;10.55;;;3.60;54.00;5.20;100826.00;;;;5090817;28;20429;-75
2021/01/09 02:57:07;;;;;;;11.00;9.60;;;3.50;55.30;5.20;100832.00;;;;5064633;28;20482;-75
2021/01/09 02:59:37;;;;;;;10.73;9.40;;;3.40;53.30;5.10;100844.00;;;;5087242;28;20434;-75
2021/01/09 03:02:08;;;;;;;10.90;9.60;;;3.40;52.20;5.10;100835.00;;;;5084842;28;20468;-75
2021/01/09 03:04:45;;;;;;;10.45;9.30;;;3.40;52.50;5.10;100835.00;;;;5083047;28;20477;-75
2021/01/09 03:07:33;;;;;;;11.77;9.73;;;3.40;52.70;5.20;100853.00;;;;5081059;28;20459;-74
2021/01/09 03:13:20;;;;;;;12.43;10.90;;;3.60;53.40;5.20;100852.00;;;;5096246;28;20421;-75
2021/01/09 03:16:05;;;;;;;12.70;11.30;;;3.60;54.70;5.30;100872.00;;;;5087114;28;20440;-75
2021/01/09 03:18:45;;;;;;;13.13;10.93;;;3.60;56.10;5.30;100857.00;;;;5085670;28;20546;-74
2021/01/09 03:21:45;;;;;;;13.07;10.25;;;3.60;56.10;5.30;100860.00;;;;5096926;28;20423;-75
2021/01/09 03:24:51;;;;;;;13.07;11.10;;;3.60;55.30;5.20;100863.00;;;;5089703;28;20513;-76
2021/01/09 03:27:56;;;;;;;13.60;10.63;;;3.50;54.50;217.30;158893.00;;;;5109087;28;20545;-76
2021/01/09 03:30:26;;;;;;;12.20;10.60;;;3.40;55.90;5.20;100865.00;;;;5081071;28;20451;-75
2021/01/09 03:33:30;;;;;;;;;;;;;;;;;;;;;
2021/01/09 03:36:05;;;;;;;12.00;10.40;;;3.50;55.20;5.00;100865.00;;;;5090091;28;20469;-73
2021/01/09 03:39:12;;;;;;;11.52;9.82;;;3.30;54.30;5.10;100877.00;;;;5094616;28;20456;-73
2021/01/09 03:41:50;;;;;;;11.18;9.85;;;3.30;55.70;5.00;67378.00;;;;5050044;28;21269;-73
2021/01/09 03:44:25;;;;;;;12.03;10.30;;;3.30;54.00;52.70;158796.00;;;;5085567;28;20529;-73
2021/01/09 03:47:09;;;;;;;10.97;9.77;;;3.20;53.50;4.90;100861.00;;;;5075168;28;20481;-73
2021/01/09 03:53:01;;;;;;;12.10;10.50;;;3.10;54.90;4.80;100855.00;;;;5082166;27;20479;-73
2021/01/09 03:56:13;;;;;;;12.48;10.00;;;3.10;54.80;4.80;100854.00;;;;5086456;28;20454;-73
2021/01/09 03:58:57;;;;;;;12.87;10.87;;;3.10;55.60;4.80;100853.00;;;;5100667;28;20487;-74
2021/01/09 04:01:28;;;;;;;11.30;10.03;;;3.10;55.10;4.80;67311.00;;;;5100208;28;20433;-74
2021/01/09 04:04:15;;;;;;;12.48;10.57;;;3.10;54.80;4.80;100845.00;;;;5109420;28;20872;-74
2021/01/09 04:06:59;;;;;;;11.90;10.60;;;3.20;55.40;4.90;100849.00;;;;5099282;28;20454;-74
2021/01/09 04:09:41;;;;;;;12.55;10.80;;;3.20;54.90;4.90;100758.00;;;;5107321;27;20833;-73
2021/01/09 04:12:25;;;;;;;12.27;10.70;;;3.10;55.30;4.90;100845.00;;;;5082387;28;20476;-73
2021/01/09 04:15:11;;;;;;;13.27;11.32;;;3.10;55.30;4.80;100856.00;;;;5094571;28;20427;-73
2021/01/09 04:17:56;;;;;;;13.02;10.80;;;3.10;55.20;4.70;100847.00;;;;5083642;28;20510;-73
2021/01/09 04:20:36;;;;;;;12.98;11.32;;;3.00;55.80;52.70;158614.00;;;;5092152;28;20515;-74
2021/01/09 04:23:23;;;;;;;14.30;12.10;;;3.00;56.70;4.80;67319.00;;;;5090613;28;20447;-73
2021/01/09 04:26:09;;;;;;;13.95;11.15;;;3.00;56.60;4.90;100859.00;;;;5077199;28;20415;-73
2021/01/09 04:29:26;;;;;;;13.90;12.40;;;3.10;56.50;4.90;100864.00;;;;5083224;28;20477;-73
2021/01/09 04:31:56;;;;;;;12.45;11.00;;;3.10;56.20;4.80;100858.00;;;;5087602;28;20423;-73
2021/01/09 04:34:35;;;;;;;13.30;11.20;;;3.10;56.20;4.90;100855.00;;;;5103822;28;20427;-73
2021/01/09 04:37:36;;;;;;;13.70;11.98;;;3.10;56.40;4.90;100868.00;;;;5087472;28;20823;-74
2021/01/09 04:40:25;;;;;;;13.80;11.95;;;3.10;56.50;4.90;100872.00;;;;5088320;28;20421;-73
2021/01/09 04:42:57;;;;;;;15.48;13.25;;;3.10;56.20;4.80;100867.00;;;;5089815;28;20514;-73
2021/01/09 04:45:56;;;;;;;13.93;12.00;;;3.10;56.80;4.80;100879.00;;;;5097342;28;20419;-75
2021/01/09 04:48:31;;;;;;;15.88;13.10;;;3.10;57.10;4.90;100886.00;;;;5082579;28;20428;-73
2021/01/09 04:51:11;;;;;;;13.07;11.68;;;3.10;56.90;4.80;100878.00;;;;5089661;28;20433;-74
2021/01/09 04:53:47;;;;;;;15.15;12.15;;;3.10;56.50;4.70;100886.00;;;;5091529;28;20430;-73
2021/01/09 04:56:36;;;;;;;13.77;12.00;;;3.00;56.90;4.70;100873.00;;;;5087035;28;20431;-73
2021/01/09 04:59:36;;;;;;;14.63;13.00;;;3.00;56.90;4.70;100880.00;;;;5120783;28;20443;-75
2021/01/09 05:03:04;;;;;;;14.45;12.82;;;3.00;57.50;4.80;100883.00;;;;5114574;28;20393;-74
2021/01/09 05:09:34;;;;;;;14.10;12.60;;;3.20;56.90;4.80;100888.00;;;;5104413;28;20513;-73
2021/01/09 05:12:36;;;;;;;13.82;11.82;;;3.20;57.50;4.80;100879.00;;;;5113931;28;20451;-74
2021/01/09 05:15:07;;;;;;;14.27;11.45;;;3.20;57.50;4.90;100868.00;;;;5114570;28;20404;-74
2021/01/09 05:17:37;;;;;;;13.93;11.38;;;3.50;58.00;5.00;100891.00;;;;5135527;27;20435;-74
2021/01/09 05:20:06;;;;;;;14.57;12.00;;;3.70;57.30;5.00;100897.00;;;;5121254;28;20408;-74
2021/01/09 05:22:37;;;;;;;15.10;12.90;;;3.70;55.50;5.00;100891.00;;;;5116874;28;20474;-74
2021/01/09 05:25:07;;;;;;;15.90;13.18;;;3.50;55.60;5.00;100902.00;;;;5106775;28;20412;-74
2021/01/09 05:27:37;;;;;;;15.10;13.10;;;3.40;57.00;5.00;100899.00;;;;5111368;28;20474;-74
2021/01/09 05:30:05;;;;;;;15.50;13.80;;;3.60;56.50;5.10;100905.00;;;;5115494;28;20469;-74
2021/01/09 05:32:34;;;;;;;14.73;12.77;;;3.40;56.90;5.10;100898.00;;;;5108784;28;20444;-74
2021/01/09 05:35:01;;;;;;;13.55;11.95;;;3.30;57.20;5.10;100903.00;;;;5079627;28;20437;-74
2021/01/09 05:37:29;;;;;;;15.07;12.50;;;3.30;58.00;5.00;100905.00;;;;5092923;28;20478;-74
2021/01/09 05:39:58;;;;;;;14.95;12.68;;;3.20;58.10;5.00;100917.00;;;;5092517;28;20455;-74
2021/01/09 05:42:29;;;;;;;14.93;12.70;;;3.20;59.50;5.00;100915.00;;;;5095250;28;20417;-74
2021/01/09 05:44:58;;;;;;;15.88;13.10;;;3.20;58.80;5.00;100916.00;;;;5092983;28;20450;-74
2021/01/09 05:47:29;;;;;;;15.52;12.93;;;3.20;59.40;5.00;100911.00;;;;5092030;28;20793;-74
2021/01/09 05:49:59;;;;;;;16.92;13.48;;;3.10;59.20;4.90;100923.00;;;;5108292;28;20421;-74
2021/01/09 05:52:28;;;;;;;16.52;13.57;;;3.10;59.20;4.90;100928.00;;;;5091658;28;20440;-74
2021/01/09 05:54:56;;;;;;;18.45;15.18;;;3.10;59.50;4.90;100934.00;;;;5082074;28;20418;-74
2021/01/09 05:57:30;;;;;;;15.73;13.90;;;3.10;59.50;4.90;100924.00;;;;5073077;28;20429;-75
2021/01/09 05:59:58;;;;;;;15.25;13.43;;;3.10;60.50;4.90;100933.00;;;;5089841;28;21005;-75
2021/01/09 06:02:27;;;;;;;16.20;13.93;;;3.20;60.50;4.90;100925.00;;;;5091785;28;20516;-75
2021/01/09 06:04:59;;;;;;;17.05;13.85;;;3.30;60.40;5.00;100925.00;;;;5093343;28;20452;-75
2021/01/09 06:07:33;;;;;;;15.50;13.32;;;3.60;60.40;217.30;158832.00;;;;5097172;28;20517;-75
2021/01/09 06:10:09;;;;;;;16.05;14.32;;;3.60;58.20;5.00;100947.00;;;;5079180;28;20424;-76
2021/01/09 06:12:49;;;;;;;16.90;13.90;;;3.50;58.00;5.00;100945.00;;;;5076592;28;20459;-74
2021/01/09 06:15:24;;;;;;;16.48;14.35;;;3.40;59.10;5.00;100947.00;;;;5083205;28;20773;-75
2021/01/09 06:17:53;;;;;;;17.50;14.70;;;3.30;58.40;5.00;100944.00;;;;5080254;28;20910;-74
2021/01/09 06:20:21;;;;;;;17.27;14.80;;;3.20;59.00;5.00;100941.00;;;;5090648;28;20507;-75
2021/01/09 06:22:49;;;;;;;16.70;14.10;;;3.10;59.50;4.90;100946.00;;;;5102669;28;21195;-74
2021/01/09 06:25:18;;;;;;;15.25;13.40;;;3.40;60.70;4.90;100946.00;;;;5091358;28;20430;-76
2021/01/09 06:27:52;;;;;;;17.80;14.60;;;3.50;60.70;5.00;100948.00;;;;5107126;28;20425;-75
2021/01/09 06:30:21;;;;;;;16.13;13.70;;;3.60;60.10;5.00;100952.00;;;;5098807;28;20425;-75
2021/01/09 06:32:56;;;;;;;17.02;13.88;;;3.70;59.50;5.00;100941.00;;;;5094099;28;21079;-75
2021/01/09 06:35:24;;;;;;;20.25;15.13;;;3.70;58.00;4.90;100932.00;;;;5097880;28;20830;-74
2021/01/09 06:37:53;;;;;;;16.42;14.60;;;3.40;57.60;4.90;100958.00;;;;5084567;28;20423;-75
2021/01/09 06:40:21;;;;;;;16.88;13.85;;;3.20;60.00;4.80;100956.00;;;;5079583;28;20443;-75
2021/01/09 06:42:51;;;;;;;17.20;15.00;;;3.30;60.70;4.80;100955.00;;;;5088515;28;20880;-75
2021/01/09 06:45:18;;;;;;;17.55;14.95;;;3.20;59.50;4.80;100963.00;;;;5085625;28;20468;-74
2021/01/09 06:47:58;;;;;;;16.07;13.10;;;3.10;60.10;4.70;100965.00;;;;5089914;28;20417;-74
2021/01/09 06:50:34;;;;;;;16.23;14.18;;;3.40;62.70;4.80;100959.00;;;;5089760;28;20409;-75
2021/01/09 06:53:04;;;;;;;17.58;14.65;;;3.50;61.00;4.80;100959.00;;;;5088000;28;20425;-75
2021/01/09 06:55:56;;;;;;;18.42;15.10;;;3.60;59.60;4.80;100968.00;;;;5088538;28;20418;-75
2021/01/09 06:58:28;;;;;;;16.27;13.50;;;3.50;60.30;4.80;100972.00;;;;5087940;28;20912;-75
2021/01/09 07:01:20;;;;;;;17.83;14.53;;;3.60;60.60;4.90;100959.00;;;;5130553;28;20422;-75
2021/01/09 07:03:48;;;;;;;19.33;14.93;;;3.50;59.50;52.70;158758.00;;;;5097557;28;20422;-74
2021/01/09 07:06:15;;;;;;;17.98;14.43;;;3.30;60.00;4.80;100966.00;;;;5083841;28;20421;-75
2021/01/09 07:08:46;;;;;;;19.20;15.60;;;3.30;61.30;4.80;100968.00;;;;5084773;28;20430;-75
2021/01/09 07:11:15;;;;;;;20.23;15.50;;;3.20;61.20;4.80;100982.00;;;;5107152;28;20971;-75
2021/01/09 07:13:44;;;;;;;21.65;16.20;;;3.10;60.80;4.70;100992.00;;;;5094534;28;20477;-74
2021/01/09 07:16:14;;;;;;;19.05;15.57;;;3.00;61.40;4.70;100986.00;;;;5090053;28;20421;-74
2021/01/09 07:18:46;;;;;;;21.37;16.50;;;3.00;62.10;4.70;100985.00;;;;5088911;28;20412;-74
2021/01/09 07:21:19;;;;;;;22.95;16.50;;;2.90;62.90;4.70;100997.00;;;;5085432;28;20815;-74
2021/01/09 07:23:51;;;;;;;19.10;16.02;;;2.90;62.90;4.50;100992.00;;;;5094224;28;20418;-73
2021/01/09 07:26:21;;;;;;;20.25;15.93;;;2.80;62.90;4.50;100998.00;;;;5095161;28;20528;-74
2021/01/09 07:28:49;;;;;;;18.08;15.73;;;2.70;63.70;4.40;100998.00;;;;5097001;28;20412;-76
2021/01/09 07:31:19;;;;;;;20.20;16.65;;;2.60;64.20;4.40;100999.00;;;;5096387;28;20494;-76
2021/01/09 07:33:47;;;;;;;21.02;16.40;;;2.60;64.00;4.40;101005.00;;;;5093250;28;20426;-76
2021/01/09 07:36:17;;;;;;;20.10;16.15;;;2.60;64.50;4.40;101005.00;;;;5087032;28;20516;-76
2021/01/09 07:38:45;;;;;;;18.80;15.70;;;2.60;64.50;4.40;101016.00;;;;5107192;28;20426;-75
2021/01/09 07:41:31;;;;;;;20.02;16.02;;;2.60;64.20;4.40;101009.00;;;;5090175;28;20506;-75
2021/01/09 07:44:15;;;;;;;20.20;16.70;;;2.60;64.10;4.50;101018.00;;;;5092522;28;20460;-75
2021/01/09 07:46:55;;;;;;;18.15;14.88;;;2.60;64.10;4.50;101013.00;;;;5111488;27;20925;-73
2021/01/09 07:49:27;;;;;;;19.15;15.38;;;2.70;64.00;4.50;101017.00;;;;5109203;27;20412;-73
2021/01/09 07:52:00;;;;;;;19.93;15.07;;;2.70;63.70;4.60;101035.00;;;;5091084;28;20435;-73
2021/01/09 07:54:36;;;;;;;18.88;14.80;;;2.70;63.70;4.60;101017.00;;;;5103732;27;20408;-74
2021/01/09 07:57:04;;;;;;;17.98;15.50;;;2.70;63.70;4.60;101022.00;;;;5093755;28;20460;-76
2021/01/09 07:59:32;;;;;;;19.35;15.77;;;2.70;63.20;217.30;158634.00;;;;5101652;28;20419;-75
2021/01/09 08:02:00;;;;;;;21.23;15.55;;;2.70;63.20;52.70;158604.00;;;;5074059;28;20493;-75
2021/01/09 08:04:28;;;;;;;19.85;15.90;;;2.70;63.50;4.40;101037.00;;;;5093302;28;20437;-75
2021/01/09 08:06:56;;;;;;;19.00;15.27;;;2.60;63.60;4.40;101036.00;;;;5087699;28;20508;-75
2021/01/09 08:09:28;;;;;;;18.10;15.30;;;2.60;63.60;4.30;101042.00;;;;5085667;28;20510;-75
2021/01/09 08:12:02;;;;;;;20.17;15.93;;;2.50;64.20;4.20;101039.00;;;;5101572;27;20517;-75
2021/01/09 08:14:29;;;;;;;20.13;15.27;;;2.50;64.50;4.20;101050.00;;;;5097872;28;20433;-74
2021/01/09 08:17:09;;;;;;;18.05;15.48;;;2.50;65.30;4.20;101052.00;;;;5096145;28;20421;-75
2021/01/09 08:19:37;;;;;;;18.90;15.07;;;2.60;65.90;4.20;101068.00;;;;5108303;28;20503;-74
2021/01/09 08:22:05;;;;;;;21.65;15.63;;;2.60;65.70;217.30;158493.00;;;;5107672;27;20422;-75
2021/01/09 08:24:33;;;;;;;19.92;15.25;;;2.60;64.80;4.30;101070.00;;;;5094284;28;20418;-75
2021/01/09 08:27:01;;;;;;;19.75;15.70;;;2.60;64.80;4.40;101072.00;;;;5110326;28;20440;-75
2021/01/09 08:29:29;;;;;;;18.83;14.73;;;2.60;64.80;4.50;101061.00;;;;5111417;28;20445;-75
2021/01/09 08:31:57;;;;;;;20.08;15.20;;;2.70;64.50;4.60;101071.00;;;;5107209;28;20509;-74
2021/01/09 08:34:25;;;;;;;18.45;14.80;;;2.80;64.20;4.70;101078.00;;;;5104535;28;20413;-74
2021/01/09 08:36:55;;;;;;;18.52;15.40;;;2.80;63.90;4.80;101061.00;;;;5124441;28;20430;-75
2021/01/09 08:39:23;;;;;;;20.00;15.10;;;2.90;63.80;4.80;101078.00;;;;5095843;28;20434;-73
2021/01/09 08:41:51;;;;;;;18.60;15.20;;;2.90;62.60;52.70;158774.00;;;;5112476;28;20409;-76
2021/01/09 08:44:19;;;;;;;19.35;14.60;;;3.00;63.20;5.00;101075.00;;;;5107595;28;20435;-74
2021/01/09 08:46:47;;;;;;;16.52;13.30;;;3.10;63.20;5.00;101090.00;;;;5096934;28;20417;-74
2021/01/09 08:49:26;;;;;;;15.85;13.38;;;3.20;62.10;5.10;101092.00;;;;5109178;28;22985;-75
2021/01/09 08:52:00;;;;;;;15.68;13.52;;;3.20;60.20;5.00;101084.00;;;;5101417;28;20420;-75
2021/01/09 08:54:30;;;;;;;15.05;13.27;;;3.20;59.50;5.00;101091.00;;;;5114776;28;20497;-75
2021/01/09 08:57:00;;;;;;;16.03;12.80;;;3.20;59.00;4.90;101074.00;;;;5118767;28;20422;-73
2021/01/09 08:59:28;;;;;;;15.35;13.15;;;3.20;58.50;4.90;101095.00;;;;5129400;28;20440;-76
2021/01/09 09:02:01;;;;;;;16.13;13.75;;;3.20;59.00;4.90;101093.00;;;;5130803;28;20410;-75
2021/01/09 09:04:32;;;;;;;16.00;13.00;;;3.10;59.20;5.00;101075.00;;;;5116950;28;20435;-73
2021/01/09 09:07:05;;;;;;;15.48;13.27;;;3.20;59.30;5.10;101093.00;;;;5114417;28;20445;-74
2021/01/09 09:09:34;;;;;;;14.45;12.65;;;3.20;58.90;5.10;101106.00;;;;5118525;28;20405;-74
2021/01/09 09:12:01;;;;;;;15.10;12.50;;;3.30;58.30;5.10;101090.00;;;;5126046;28;20420;-74
2021/01/09 09:14:30;;;;;;;14.85;13.10;;;3.30;57.80;5.10;101099.00;;;;5120593;28;20416;-75
2021/01/09 09:16:59;;;;;;;16.02;13.38;;;3.30;57.90;5.10;101094.00;;;;5108224;28;20729;-75
2021/01/09 09:19:33;;;;;;;15.70;13.10;;;3.30;57.50;5.10;101089.00;;;;5113436;28;20458;-75
2021/01/09 09:22:01;;;;;;;16.95;14.13;;;3.30;57.60;5.10;101092.00;;;;5120976;27;20435;-75
2021/01/09 09:24:40;;;;;;;18.48;14.05;;;3.40;57.90;5.20;101110.00;;;;5107454;28;20429;-74
2021/01/09 09:27:25;;;;;;;15.63;13.80;;;3.40;57.10;5.20;101093.00;;;;5095005;28;20429;-75
2021/01/09 09:30:08;;;;;;;16.30;13.45;;;3.50;56.50;5.30;101093.00;;;;5096517;28;20454;-75
2021/01/09 09:32:36;;;;;;;13.65;11.50;;;3.60;56.70;5.20;101102.00;;;;5115420;28;20528;-75
2021/01/09 09:35:25;;;;;;;12.50;11.20;;;3.60;55.30;5.20;101101.00;;;;5104459;28;20420;-75
2021/01/09 09:37:54;;;;;;;14.65;12.13;;;3.60;55.30;5.20;101089.00;;;;5093756;28;20417;-77
2021/01/09 09:40:27;;;;;;;14.27;11.77;;;3.60;55.80;5.20;101112.00;;;;5080230;28;20900;-76
2021/01/09 09:43:10;;;;;;;14.10;11.63;;;3.70;55.30;5.40;101106.00;;;;5110721;27;20453;-74
2021/01/09 09:45:38;;;;;;;13.30;11.20;;;3.80;55.20;5.40;101115.00;;;;5094397;28;20956;-75
2021/01/09 09:48:07;;;;;;;13.35;11.55;;;3.80;54.70;5.40;101099.00;;;;5089683;28;20425;-74
2021/01/09 09:50:35;;;;;;;12.00;10.70;;;3.80;54.40;5.50;101109.00;;;;5088183;28;20504;-75
2021/01/09 09:53:05;;;;;;;13.90;10.90;;;3.90;53.60;5.50;101102.00;;;;5094089;28;20912;-76
2021/01/09 09:55:33;;;;;;;12.65;9.90;;;3.90;52.80;5.40;101103.00;;;;5093337;28;20474;-75
2021/01/09 09:58:06;;;;;;;11.68;10.25;;;3.90;53.10;5.40;101101.00;;;;5083419;28;20470;-75
2021/01/09 10:00:41;;;;;;;12.13;10.50;;;3.90;53.20;5.50;101086.00;;;;5115256;27;20442;-76
2021/01/09 10:03:09;;;;;;;12.87;10.60;;;3.90;53.00;5.50;67484.00;;;;5110000;27;20429;-75
2021/01/09 10:05:38;;;;;;;12.45;10.80;;;3.90;52.60;5.60;67457.00;;;;5091325;28;20485;-76
2021/01/09 10:08:11;;;;;;;12.98;10.55;;;4.00;51.70;5.60;67479.00;;;;5091872;28;20420;-75
2021/01/09 10:10:38;;;;;;;12.95;11.05;;;4.10;51.00;5.70;67518.00;;;;5092541;28;20522;-76
2021/01/09 10:13:06;;;;;;;13.50;10.82;;;4.20;51.40;5.70;67531.00;;;;5083505;28;20422;-76
2021/01/09 10:15:33;;;;;;;11.80;10.50;;;4.20;50.50;5.80;67548.00;;;;5092592;28;20462;-75
2021/01/09 10:18:02;;;;;;;11.63;10.43;;;4.20;50.70;5.80;101096.00;;;;5090870;28;20417;-75
2021/01/09 10:20:29;;;;;;;11.82;10.10;;;4.20;49.20;5.70;67530.00;;;;5083721;28;20418;-75
2021/01/09 10:22:58;;;;;;;11.80;10.30;;;4.30;49.30;217.30;159185.00;;;;5095608;28;20474;-75
2021/01/09 10:25:25;;;;;;;13.20;10.13;;;4.40;49.10;217.30;159290.00;;;;5092808;28;20566;-76
2021/01/09 10:27:52;;;;;;;12.95;10.07;;;4.40;49.90;217.30;159216.00;;;;5108667;28;20402;-76
2021/01/09 10:30:21;;;;;;;12.45;9.90;;;4.40;49.10;5.70;67515.00;;;;5099584;28;20413;-77
2021/01/09 10:32:49;;;;;;;11.30;9.70;;;4.20;49.50;5.50;67479.00;;;;5100314;28;20975;-76
2021/01/09 10:35:16;;;;;;;9.75;8.20;;;4.10;48.70;5.50;67479.00;;;;5083516;28;20802;-75
2021/01/09 10:37:44;;;;;;;10.60;9.10;;;4.00;48.30;5.50;101105.00;;;;5092861;28;20515;-75
2021/01/09 10:40:13;;;;;;;11.20;9.23;;;3.90;48.60;5.80;101083.00;;;;5090375;28;20417;-75
2021/01/09 10:42:41;;;;;;;9.80;8.80;;;4.00;48.00;5.90;67554.00;;;;5090534;28;20968;-76
2021/01/09 10:45:10;;;;;;;10.00;8.93;;;4.20;48.00;6.40;101108.00;;;;5092120;28;20422;-76
2021/01/09 10:47:41;;;;;;;10.07;8.65;;;4.70;45.70;6.40;101101.00;;;;5128615;27;20430;-76
2021/01/09 10:50:13;;;;;;;10.10;8.15;;;4.80;42.20;217.30;159437.00;;;;5106389;28;20503;-76
2021/01/09 10:52:40;;;;;;;8.70;7.80;;;4.80;40.80;6.40;101094.00;;;;5115897;28;20476;-74
2021/01/09 10:55:09;;;;;;;9.40;7.90;;;4.80;40.60;6.40;101101.00;;;;5136610;27;20418;-76
2021/01/09 10:57:37;;;;;;;7.85;7.05;;;4.80;40.70;6.40;101094.00;;;;5093937;28;20460;-76
2021/01/09 11:00:10;;;;;;;8.00;7.10;;;4.70;39.40;6.30;101089.00;;;;5096114;28;20426;-76
2021/01/09 11:02:37;;;;;;;8.48;7.57;;;4.70;39.80;6.40;101086.00;;;;5089488;28;20990;-76
2021/01/09 11:05:06;;;;;;;8.85;6.85;;;4.60;40.70;6.30;67651.00;;;;5089487;28;20410;-76
2021/01/09 11:07:33;;;;;;;8.43;7.25;;;4.60;39.10;6.30;101077.00;;;;5093425;28;20937;-76
2021/01/09 11:10:01;;;;;;;7.40;6.60;;;4.50;40.20;6.30;101089.00;;;;5102015;28;20443;-75
2021/01/09 11:12:28;;;;;;;9.55;8.40;;;4.50;41.30;6.20;101106.00;;;;5088662;28;20427;-76
2021/01/09 11:14:56;;;;;;;9.60;8.40;;;4.50;40.40;6.20;101106.00;;;;5095604;28;20947;-75
2021/01/09 11:17:24;;;;;;;9.70;8.35;;;4.50;41.30;6.40;101096.00;;;;5098075;28;20414;-75
2021/01/09 11:19:52;;;;;;;9.50;7.88;;;4.60;41.50;6.40;67674.00;;;;5099703;28;20428;-75
2021/01/09 11:22:19;;;;;;;10.95;8.30;;;4.60;37.40;6.30;101103.00;;;;5101299;28;20427;-76
2021/01/09 11:24:47;;;;;;;10.30;7.70;;;4.60;38.10;6.50;101108.00;;;;5107265;28;21059;-75
2021/01/09 11:27:17;;;;;;;10.07;7.65;;;4.60;38.50;6.50;101113.00;;;;5091556;28;20417;-76
2021/01/09 11:29:45;;;;;;;8.82;7.47;;;4.70;39.50;6.20;101111.00;;;;5097458;28;20414;-74
2021/01/09 11:32:15;;;;;;;9.30;7.97;;;4.60;37.80;6.20;101117.00;;;;5095148;28;20810;-74
2021/01/09 11:34:42;;;;;;;9.70;8.20;;;4.50;40.10;6.40;101113.00;;;;5128424;27;20476;-75